KAKQ

Wakefield Municipal Airport

Wakefield, Virginia, USA
METAR KAKQ 181054Z AUTO 00000KT 3/4SM BR VV002 22/22 A3006 RMK AO2 SLP177 T02220217
Observed Flight Rules
Jun-18 @ 10:54 UTC (7 minutes ago) Instrument Flight Rules
Visibility Clouds Conditions
3/4 miles
  • Vertical visibility at 200' AGL
  • Mist
Temperatures Readings
Current 22°C / 72°F
Dewpoint 22°C / 72°F
Humidity 100%
Altimeter 30.06" Hg
Pressure 1017.7 hPa
Elevation 34
METAR KAKQ 181054Z AUTO 00000KT 3/4SM BR VV002 22/22 A3006 RMK AO2 SLP177 T02220217
Observed Flight Rules
Jun-18 @ 10:54 UTC
(7 minutes ago)
LIFR
Clouds
  • Vertical visibility at 200' AGL
Conditions
  • Mist
Temperature Dewpoint
22°C / 72°F 22°C / 72°F
Humidity Altimeter Pressure
100% 30.06" Hg 1017.7 hPa